sensor_id;sensor_type;location;lat;lon;timestamp;temperature;humidity
39503;DHT22;26970;49.900;10.774;2023-05-07T00:01:41;13.10;99.90
39503;DHT22;26970;49.900;10.774;2023-05-07T00:04:07;13.10;99.90
39503;DHT22;26970;49.900;10.774;2023-05-07T00:06:33;13.00;99.90
39503;DHT22;26970;49.900;10.774;2023-05-07T00:08:59;13.00;99.90
39503;DHT22;26970;49.900;10.774;2023-05-07T00:11:26;12.90;99.90
39503;DHT22;26970;49.900;10.774;2023-05-07T00:13:52;12.90;99.90
39503;DHT22;26970;49.900;10.774;2023-05-07T00:16:18;12.90;99.90
39503;DHT22;26970;49.900;10.774;2023-05-07T00:18:44;12.90;99.90
39503;DHT22;26970;49.900;10.774;2023-05-07T00:21:10;13.00;99.90
39503;DHT22;26970;49.900;10.774;2023-05-07T00:23:36;12.90;99.90
39503;DHT22;26970;49.900;10.774;2023-05-07T00:26:02;12.90;99.90
39503;DHT22;26970;49.900;10.774;2023-05-07T00:28:28;12.90;99.90
39503;DHT22;26970;49.900;10.774;2023-05-07T00:30:53;12.90;99.90
39503;DHT22;26970;49.900;10.774;2023-05-07T00:33:19;12.90;99.90
39503;DHT22;26970;49.900;10.774;2023-05-07T00:35:46;12.80;99.90
39503;DHT22;26970;49.900;10.774;2023-05-07T00:38:12;12.80;99.90
39503;DHT22;26970;49.900;10.774;2023-05-07T00:40:37;12.70;99.90
39503;DHT22;26970;49.900;10.774;2023-05-07T00:43:03;12.70;99.90
39503;DHT22;26970;49.900;10.774;2023-05-07T00:45:29;12.70;99.90
39503;DHT22;26970;49.900;10.774;2023-05-07T00:47:56;12.70;99.90
39503;DHT22;26970;49.900;10.774;2023-05-07T00:50:22;12.60;99.90
39503;DHT22;26970;49.900;10.774;2023-05-07T00:52:48;12.60;99.90
39503;DHT22;26970;49.900;10.774;2023-05-07T00:55:14;12.60;99.90
39503;DHT22;26970;49.900;10.774;2023-05-07T00:57:40;12.60;99.90
39503;DHT22;26970;49.900;10.774;2023-05-07T01:00:08;12.60;99.90
39503;DHT22;26970;49.900;10.774;2023-05-07T01:02:35;12.60;99.90
39503;DHT22;26970;49.900;10.774;2023-05-07T01:05:01;12.50;99.90
39503;DHT22;26970;49.900;10.774;2023-05-07T01:07:29;12.50;99.90
39503;DHT22;26970;49.900;10.774;2023-05-07T01:09:55;12.50;99.90
39503;DHT22;26970;49.900;10.774;2023-05-07T01:12:21;12.50;99.90
39503;DHT22;26970;49.900;10.774;2023-05-07T01:14:47;12.50;99.90
39503;DHT22;26970;49.900;10.774;2023-05-07T01:17:15;12.50;99.90
39503;DHT22;26970;49.900;10.774;2023-05-07T01:19:41;12.50;99.90
39503;DHT22;26970;49.900;10.774;2023-05-07T01:22:10;12.50;99.90
39503;DHT22;26970;49.900;10.774;2023-05-07T01:24:37;12.50;99.90
39503;DHT22;26970;49.900;10.774;2023-05-07T01:27:03;12.50;99.90
39503;DHT22;26970;49.900;10.774;2023-05-07T01:29:28;12.50;99.90
39503;DHT22;26970;49.900;10.774;2023-05-07T01:31:57;12.50;99.90
39503;DHT22;26970;49.900;10.774;2023-05-07T01:34:25;12.50;99.90
39503;DHT22;26970;49.900;10.774;2023-05-07T01:36:54;12.50;99.90
39503;DHT22;26970;49.900;10.774;2023-05-07T01:39:22;12.50;99.90
39503;DHT22;26970;49.900;10.774;2023-05-07T01:41:49;12.50;99.90
39503;DHT22;26970;49.900;10.774;2023-05-07T01:44:15;12.50;99.90
39503;DHT22;26970;49.900;10.774;2023-05-07T01:46:42;12.50;99.90
39503;DHT22;26970;49.900;10.774;2023-05-07T01:49:08;12.50;99.90
39503;DHT22;26970;49.900;10.774;2023-05-07T01:51:33;12.40;99.90
39503;DHT22;26970;49.900;10.774;2023-05-07T01:53:59;12.50;99.90
39503;DHT22;26970;49.900;10.774;2023-05-07T01:56:25;12.40;99.90
39503;DHT22;26970;49.900;10.774;2023-05-07T02:02:13;12.40;99.90
39503;DHT22;26970;49.900;10.774;2023-05-07T02:04:39;12.40;99.90
39503;DHT22;26970;49.900;10.774;2023-05-07T02:07:04;12.30;99.90
39503;DHT22;26970;49.900;10.774;2023-05-07T02:09:30;12.30;99.90
39503;DHT22;26970;49.900;10.774;2023-05-07T02:11:56;12.20;99.90
39503;DHT22;26970;49.900;10.774;2023-05-07T02:14:21;12.20;99.90
39503;DHT22;26970;49.900;10.774;2023-05-07T02:16:47;12.20;99.90
39503;DHT22;26970;49.900;10.774;2023-05-07T02:19:12;12.10;99.90
39503;DHT22;26970;49.900;10.774;2023-05-07T02:21:38;12.20;99.90
39503;DHT22;26970;49.900;10.774;2023-05-07T02:24:04;12.10;99.90
39503;DHT22;26970;49.900;10.774;2023-05-07T02:26:29;12.00;99.90
39503;DHT22;26970;49.900;10.774;2023-05-07T02:28:55;12.00;99.90
39503;DHT22;26970;49.900;10.774;2023-05-07T02:31:21;11.90;99.90
39503;DHT22;26970;49.900;10.774;2023-05-07T02:33:46;11.90;99.90
39503;DHT22;26970;49.900;10.774;2023-05-07T02:36:12;11.80;99.90
39503;DHT22;26970;49.900;10.774;2023-05-07T02:38:38;11.80;99.90
39503;DHT22;26970;49.900;10.774;2023-05-07T02:41:04;11.80;99.90
39503;DHT22;26970;49.900;10.774;2023-05-07T02:43:29;11.70;99.90
39503;DHT22;26970;49.900;10.774;2023-05-07T02:46:06;11.70;99.90
39503;DHT22;26970;49.900;10.774;2023-05-07T02:48:32;11.70;99.90
39503;DHT22;26970;49.900;10.774;2023-05-07T02:50:58;11.60;99.90
39503;DHT22;26970;49.900;10.774;2023-05-07T02:53:25;11.60;99.90
39503;DHT22;26970;49.900;10.774;2023-05-07T02:55:57;11.50;99.90
39503;DHT22;26970;49.900;10.774;2023-05-07T02:58:23;11.40;99.90
39503;DHT22;26970;49.900;10.774;2023-05-07T03:00:49;11.40;99.90
39503;DHT22;26970;49.900;10.774;2023-05-07T03:03:15;11.40;99.90
39503;DHT22;26970;49.900;10.774;2023-05-07T03:05:40;11.40;99.90
39503;DHT22;26970;49.900;10.774;2023-05-07T03:08:07;11.40;99.90
39503;DHT22;26970;49.900;10.774;2023-05-07T03:10:33;11.40;99.90
39503;DHT22;26970;49.900;10.774;2023-05-07T03:12:58;11.40;99.90
39503;DHT22;26970;49.900;10.774;2023-05-07T03:15:24;11.30;99.90
39503;DHT22;26970;49.900;10.774;2023-05-07T03:17:49;11.30;99.90
39503;DHT22;26970;49.900;10.774;2023-05-07T03:20:15;11.30;99.90
39503;DHT22;26970;49.900;10.774;2023-05-07T03:22:41;11.30;99.90
39503;DHT22;26970;49.900;10.774;2023-05-07T03:25:08;11.30;99.90
39503;DHT22;26970;49.900;10.774;2023-05-07T03:27:34;11.30;99.90
39503;DHT22;26970;49.900;10.774;2023-05-07T03:30:00;11.30;99.90
39503;DHT22;26970;49.900;10.774;2023-05-07T03:32:26;11.30;99.90
39503;DHT22;26970;49.900;10.774;2023-05-07T03:34:51;11.30;99.90
39503;DHT22;26970;49.900;10.774;2023-05-07T03:37:18;11.30;99.90
39503;DHT22;26970;49.900;10.774;2023-05-07T03:39:44;11.30;99.90
39503;DHT22;26970;49.900;10.774;2023-05-07T03:42:09;11.30;99.90
39503;DHT22;26970;49.900;10.774;2023-05-07T03:44:35;11.30;99.90
39503;DHT22;26970;49.900;10.774;2023-05-07T03:47:02;11.20;99.90
39503;DHT22;26970;49.900;10.774;2023-05-07T03:49:27;11.20;99.90
39503;DHT22;26970;49.900;10.774;2023-05-07T03:51:53;11.10;99.90
39503;DHT22;26970;49.900;10.774;2023-05-07T03:54:19;11.10;99.90
39503;DHT22;26970;49.900;10.774;2023-05-07T03:56:44;11.00;99.90
39503;DHT22;26970;49.900;10.774;2023-05-07T03:59:10;11.10;99.90
39503;DHT22;26970;49.900;10.774;2023-05-07T04:01:35;11.00;99.90
39503;DHT22;26970;49.900;10.774;2023-05-07T04:04:01;11.10;99.90
39503;DHT22;26970;49.900;10.774;2023-05-07T04:06:27;11.10;99.90
39503;DHT22;26970;49.900;10.774;2023-05-07T04:08:52;11.00;99.90
39503;DHT22;26970;49.900;10.774;2023-05-07T04:11:18;11.00;99.90
39503;DHT22;26970;49.900;10.774;2023-05-07T04:13:44;11.00;99.90
39503;DHT22;26970;49.900;10.774;2023-05-07T04:16:09;11.00;99.90
39503;DHT22;26970;49.900;10.774;2023-05-07T04:18:35;11.00;99.90
39503;DHT22;26970;49.900;10.774;2023-05-07T04:21:01;10.90;99.90
39503;DHT22;26970;49.900;10.774;2023-05-07T04:23:26;10.90;99.90
39503;DHT22;26970;49.900;10.774;2023-05-07T04:25:52;10.80;99.90
39503;DHT22;26970;49.900;10.774;2023-05-07T04:28:18;10.90;99.90
39503;DHT22;26970;49.900;10.774;2023-05-07T04:30:43;11.00;99.90
39503;DHT22;26970;49.900;10.774;2023-05-07T04:33:09;11.10;99.90
39503;DHT22;26970;49.900;10.774;2023-05-07T04:35:35;11.30;99.90
39503;DHT22;26970;49.900;10.774;2023-05-07T04:38:01;11.50;99.90
39503;DHT22;26970;49.900;10.774;2023-05-07T04:40:27;11.70;99.90
39503;DHT22;26970;49.900;10.774;2023-05-07T04:42:52;11.90;99.90
39503;DHT22;26970;49.900;10.774;2023-05-07T04:45:18;12.10;99.90
39503;DHT22;26970;49.900;10.774;2023-05-07T04:47:44;12.40;99.90
39503;DHT22;26970;49.900;10.774;2023-05-07T04:50:10;12.50;99.90
39503;DHT22;26970;49.900;10.774;2023-05-07T04:52:36;12.70;99.90
39503;DHT22;26970;49.900;10.774;2023-05-07T04:55:02;12.70;99.90
39503;DHT22;26970;49.900;10.774;2023-05-07T04:57:27;12.80;99.90
39503;DHT22;26970;49.900;10.774;2023-05-07T04:59:54;12.70;99.90
39503;DHT22;26970;49.900;10.774;2023-05-07T05:02:19;13.00;99.90
39503;DHT22;26970;49.900;10.774;2023-05-07T05:04:45;13.20;99.90
39503;DHT22;26970;49.900;10.774;2023-05-07T05:07:10;13.50;99.90
39503;DHT22;26970;49.900;10.774;2023-05-07T05:09:36;13.40;99.90
39503;DHT22;26970;49.900;10.774;2023-05-07T05:12:02;13.30;99.90
39503;DHT22;26970;49.900;10.774;2023-05-07T05:14:28;13.40;99.90
39503;DHT22;26970;49.900;10.774;2023-05-07T05:16:53;13.30;99.90
39503;DHT22;26970;49.900;10.774;2023-05-07T05:19:19;13.20;99.90
39503;DHT22;26970;49.900;10.774;2023-05-07T05:21:44;13.10;99.90
39503;DHT22;26970;49.900;10.774;2023-05-07T05:24:10;12.90;99.90
39503;DHT22;26970;49.900;10.774;2023-05-07T05:26:36;12.90;99.90
39503;DHT22;26970;49.900;10.774;2023-05-07T05:29:01;12.80;99.90
39503;DHT22;26970;49.900;10.774;2023-05-07T05:31:27;12.80;99.90
39503;DHT22;26970;49.900;10.774;2023-05-07T05:33:52;12.80;99.90
39503;DHT22;26970;49.900;10.774;2023-05-07T05:36:18;12.80;99.90
39503;DHT22;26970;49.900;10.774;2023-05-07T05:38:44;12.80;99.90
39503;DHT22;26970;49.900;10.774;2023-05-07T05:41:10;12.80;99.90
39503;DHT22;26970;49.900;10.774;2023-05-07T05:43:35;12.80;99.90
39503;DHT22;26970;49.900;10.774;2023-05-07T05:46:01;12.90;99.90
39503;DHT22;26970;49.900;10.774;2023-05-07T05:48:28;13.20;99.90
39503;DHT22;26970;49.900;10.774;2023-05-07T05:50:54;13.30;99.90
39503;DHT22;26970;49.900;10.774;2023-05-07T05:53:19;13.40;99.90
39503;DHT22;26970;49.900;10.774;2023-05-07T05:55:45;13.20;99.90
39503;DHT22;26970;49.900;10.774;2023-05-07T05:58:11;13.20;99.90
39503;DHT22;26970;49.900;10.774;2023-05-07T06:00:37;13.30;99.90
39503;DHT22;26970;49.900;10.774;2023-05-07T06:03:03;13.30;99.90
39503;DHT22;26970;49.900;10.774;2023-05-07T06:05:28;13.30;99.90
39503;DHT22;26970;49.900;10.774;2023-05-07T06:07:54;13.20;99.90
39503;DHT22;26970;49.900;10.774;2023-05-07T06:10:20;13.20;99.90
39503;DHT22;26970;49.900;10.774;2023-05-07T06:12:45;13.20;99.90
39503;DHT22;26970;49.900;10.774;2023-05-07T06:15:11;13.10;99.90
39503;DHT22;26970;49.900;10.774;2023-05-07T06:17:36;13.10;99.90
39503;DHT22;26970;49.900;10.774;2023-05-07T06:20:02;13.10;99.90
39503;DHT22;26970;49.900;10.774;2023-05-07T06:22:28;13.20;99.90
39503;DHT22;26970;49.900;10.774;2023-05-07T06:24:53;13.20;99.90
39503;DHT22;26970;49.900;10.774;2023-05-07T06:27:19;13.20;99.90
39503;DHT22;26970;49.900;10.774;2023-05-07T06:29:45;13.20;99.90
39503;DHT22;26970;49.900;10.774;2023-05-07T06:32:12;13.30;99.90
39503;DHT22;26970;49.900;10.774;2023-05-07T06:34:39;13.30;99.90
39503;DHT22;26970;49.900;10.774;2023-05-07T06:37:05;13.40;99.90
39503;DHT22;26970;49.900;10.774;2023-05-07T06:39:31;13.30;99.90
39503;DHT22;26970;49.900;10.774;2023-05-07T06:41:57;13.50;99.90
39503;DHT22;26970;49.900;10.774;2023-05-07T06:44:23;13.60;99.90
39503;DHT22;26970;49.900;10.774;2023-05-07T06:46:49;13.70;99.90
39503;DHT22;26970;49.900;10.774;2023-05-07T06:49:15;13.60;99.90
39503;DHT22;26970;49.900;10.774;2023-05-07T06:51:40;13.80;99.90
39503;DHT22;26970;49.900;10.774;2023-05-07T06:54:06;13.80;99.90
39503;DHT22;26970;49.900;10.774;2023-05-07T06:56:32;13.90;99.90
39503;DHT22;26970;49.900;10.774;2023-05-07T06:59:00;13.90;99.90
39503;DHT22;26970;49.900;10.774;2023-05-07T07:01:25;14.00;99.90
39503;DHT22;26970;49.900;10.774;2023-05-07T07:03:51;14.10;99.90
39503;DHT22;26970;49.900;10.774;2023-05-07T07:06:17;14.10;99.90
39503;DHT22;26970;49.900;10.774;2023-05-07T07:08:42;14.20;99.90
39503;DHT22;26970;49.900;10.774;2023-05-07T07:11:09;14.10;99.90
39503;DHT22;26970;49.900;10.774;2023-05-07T07:13:34;14.20;99.90
39503;DHT22;26970;49.900;10.774;2023-05-07T07:16:00;14.20;99.90
39503;DHT22;26970;49.900;10.774;2023-05-07T07:18:26;14.20;99.90
39503;DHT22;26970;49.900;10.774;2023-05-07T07:20:51;14.20;99.90
39503;DHT22;26970;49.900;10.774;2023-05-07T07:23:17;14.30;99.90
39503;DHT22;26970;49.900;10.774;2023-05-07T07:25:43;14.40;99.90
39503;DHT22;26970;49.900;10.774;2023-05-07T07:28:08;14.50;99.90
39503;DHT22;26970;49.900;10.774;2023-05-07T07:30:34;14.50;99.90
39503;DHT22;26970;49.900;10.774;2023-05-07T07:32:59;14.50;99.90
39503;DHT22;26970;49.900;10.774;2023-05-07T07:35:31;14.50;99.90
39503;DHT22;26970;49.900;10.774;2023-05-07T07:37:57;14.50;99.90
39503;DHT22;26970;49.900;10.774;2023-05-07T07:40:23;14.60;99.90
39503;DHT22;26970;49.900;10.774;2023-05-07T07:42:50;14.70;99.90
39503;DHT22;26970;49.900;10.774;2023-05-07T07:45:16;14.80;99.90
39503;DHT22;26970;49.900;10.774;2023-05-07T07:47:41;14.90;99.90
39503;DHT22;26970;49.900;10.774;2023-05-07T07:50:08;14.80;99.90
39503;DHT22;26970;49.900;10.774;2023-05-07T07:52:34;14.80;99.90
39503;DHT22;26970;49.900;10.774;2023-05-07T07:55:00;14.80;99.90
39503;DHT22;26970;49.900;10.774;2023-05-07T07:57:26;14.90;99.90
39503;DHT22;26970;49.900;10.774;2023-05-07T07:59:52;15.00;99.90
39503;DHT22;26970;49.900;10.774;2023-05-07T08:02:18;15.20;99.90
39503;DHT22;26970;49.900;10.774;2023-05-07T08:04:43;15.40;99.90
39503;DHT22;26970;49.900;10.774;2023-05-07T08:07:09;15.40;99.90
39503;DHT22;26970;49.900;10.774;2023-05-07T08:09:36;15.50;99.90
39503;DHT22;26970;49.900;10.774;2023-05-07T08:12:02;15.60;99.90
39503;DHT22;26970;49.900;10.774;2023-05-07T08:14:28;15.70;99.90
39503;DHT22;26970;49.900;10.774;2023-05-07T08:16:54;15.80;99.90
39503;DHT22;26970;49.900;10.774;2023-05-07T08:19:20;15.90;99.90
39503;DHT22;26970;49.900;10.774;2023-05-07T08:21:47;16.10;99.90
39503;DHT22;26970;49.900;10.774;2023-05-07T08:24:14;16.20;99.90
39503;DHT22;26970;49.900;10.774;2023-05-07T08:26:39;16.10;99.90
39503;DHT22;26970;49.900;10.774;2023-05-07T08:29:05;16.10;99.90
39503;DHT22;26970;49.900;10.774;2023-05-07T08:31:31;16.20;99.90
39503;DHT22;26970;49.900;10.774;2023-05-07T08:34:00;16.50;99.90
39503;DHT22;26970;49.900;10.774;2023-05-07T08:36:26;16.80;99.90
39503;DHT22;26970;49.900;10.774;2023-05-07T08:38:52;17.00;99.90
39503;DHT22;26970;49.900;10.774;2023-05-07T08:41:18;17.30;99.90
39503;DHT22;26970;49.900;10.774;2023-05-07T08:43:47;17.40;99.90
39503;DHT22;26970;49.900;10.774;2023-05-07T08:46:17;17.20;99.90
39503;DHT22;26970;49.900;10.774;2023-05-07T08:48:44;17.10;99.90
39503;DHT22;26970;49.900;10.774;2023-05-07T08:51:15;16.80;99.90
39503;DHT22;26970;49.900;10.774;2023-05-07T08:53:42;16.90;99.90
39503;DHT22;26970;49.900;10.774;2023-05-07T08:56:11;16.80;99.90
39503;DHT22;26970;49.900;10.774;2023-05-07T08:58:37;16.60;99.90
39503;DHT22;26970;49.900;10.774;2023-05-07T09:01:09;16.70;99.90
39503;DHT22;26970;49.900;10.774;2023-05-07T09:03:37;16.80;99.90
39503;DHT22;26970;49.900;10.774;2023-05-07T09:06:03;17.00;99.90
39503;DHT22;26970;49.900;10.774;2023-05-07T09:08:29;17.10;99.90
39503;DHT22;26970;49.900;10.774;2023-05-07T09:10:55;17.20;99.90
39503;DHT22;26970;49.900;10.774;2023-05-07T09:13:21;17.30;99.90
39503;DHT22;26970;49.900;10.774;2023-05-07T09:15:46;17.40;99.90
39503;DHT22;26970;49.900;10.774;2023-05-07T09:18:12;17.50;99.90
39503;DHT22;26970;49.900;10.774;2023-05-07T09:20:39;17.50;99.90
39503;DHT22;26970;49.900;10.774;2023-05-07T09:23:06;17.60;99.90
39503;DHT22;26970;49.900;10.774;2023-05-07T09:25:33;17.80;99.90
39503;DHT22;26970;49.900;10.774;2023-05-07T09:28:00;18.00;99.90
39503;DHT22;26970;49.900;10.774;2023-05-07T09:30:32;18.00;99.90
39503;DHT22;26970;49.900;10.774;2023-05-07T09:32:58;18.10;99.90
39503;DHT22;26970;49.900;10.774;2023-05-07T09:35:25;18.10;99.90
39503;DHT22;26970;49.900;10.774;2023-05-07T09:37:57;18.20;99.90
39503;DHT22;26970;49.900;10.774;2023-05-07T09:40:24;18.20;99.90
39503;DHT22;26970;49.900;10.774;2023-05-07T09:42:50;18.30;99.90
39503;DHT22;26970;49.900;10.774;2023-05-07T09:45:30;18.40;99.90
39503;DHT22;26970;49.900;10.774;2023-05-07T09:47:58;18.50;99.90
39503;DHT22;26970;49.900;10.774;2023-05-07T09:50:29;18.40;99.90
39503;DHT22;26970;49.900;10.774;2023-05-07T09:52:57;18.10;99.90
39503;DHT22;26970;49.900;10.774;2023-05-07T09:55:23;18.00;99.90
39503;DHT22;26970;49.900;10.774;2023-05-07T09:57:53;17.90;99.90
39503;DHT22;26970;49.900;10.774;2023-05-07T10:00:20;17.90;99.90
39503;DHT22;26970;49.900;10.774;2023-05-07T10:02:48;17.90;99.90
39503;DHT22;26970;49.900;10.774;2023-05-07T10:05:15;18.00;99.90
39503;DHT22;26970;49.900;10.774;2023-05-07T10:07:41;18.10;99.90
39503;DHT22;26970;49.900;10.774;2023-05-07T10:10:07;18.10;99.90
39503;DHT22;26970;49.900;10.774;2023-05-07T10:12:33;18.20;99.90
39503;DHT22;26970;49.900;10.774;2023-05-07T10:15:07;18.20;99.90
39503;DHT22;26970;49.900;10.774;2023-05-07T10:17:35;18.30;99.90
39503;DHT22;26970;49.900;10.774;2023-05-07T10:20:01;18.30;99.90
39503;DHT22;26970;49.900;10.774;2023-05-07T10:22:29;18.40;99.90
39503;DHT22;26970;49.900;10.774;2023-05-07T10:24:59;18.50;99.90
39503;DHT22;26970;49.900;10.774;2023-05-07T10:27:29;18.60;99.90
39503;DHT22;26970;49.900;10.774;2023-05-07T10:35:16;18.60;99.90
39503;DHT22;26970;49.900;10.774;2023-05-07T10:37:43;18.60;99.90
39503;DHT22;26970;49.900;10.774;2023-05-07T10:40:10;18.80;99.90
39503;DHT22;26970;49.900;10.774;2023-05-07T10:42:36;18.90;99.90
39503;DHT22;26970;49.900;10.774;2023-05-07T10:45:13;18.90;99.90
39503;DHT22;26970;49.900;10.774;2023-05-07T10:50:35;19.70;99.90
39503;DHT22;26970;49.900;10.774;2023-05-07T10:53:28;20.00;99.90
39503;DHT22;26970;49.900;10.774;2023-05-07T10:58:42;20.20;99.90
39503;DHT22;26970;49.900;10.774;2023-05-07T11:01:08;20.30;99.90
39503;DHT22;26970;49.900;10.774;2023-05-07T11:04:15;20.20;99.90
39503;DHT22;26970;49.900;10.774;2023-05-07T11:07:28;20.10;99.90
39503;DHT22;26970;49.900;10.774;2023-05-07T11:09:59;19.80;99.90
39503;DHT22;26970;49.900;10.774;2023-05-07T11:15:03;19.90;99.90
39503;DHT22;26970;49.900;10.774;2023-05-07T11:17:29;20.00;99.90
39503;DHT22;26970;49.900;10.774;2023-05-07T11:19:57;20.20;99.90
39503;DHT22;26970;49.900;10.774;2023-05-07T11:25:02;20.30;99.90
39503;DHT22;26970;49.900;10.774;2023-05-07T11:27:29;20.20;99.90
39503;DHT22;26970;49.900;10.774;2023-05-07T11:29:55;20.30;99.90
39503;DHT22;26970;49.900;10.774;2023-05-07T11:32:29;20.20;99.90
39503;DHT22;26970;49.900;10.774;2023-05-07T11:34:56;20.00;99.90
39503;DHT22;26970;49.900;10.774;2023-05-07T11:37:22;19.80;99.90
39503;DHT22;26970;49.900;10.774;2023-05-07T11:39:49;19.90;99.90
39503;DHT22;26970;49.900;10.774;2023-05-07T11:42:32;19.90;99.90
39503;DHT22;26970;49.900;10.774;2023-05-07T11:44:58;20.10;99.90
39503;DHT22;26970;49.900;10.774;2023-05-07T11:47:24;20.20;99.90
39503;DHT22;26970;49.900;10.774;2023-05-07T11:49:54;20.20;99.90
39503;DHT22;26970;49.900;10.774;2023-05-07T11:52:22;20.20;99.90
39503;DHT22;26970;49.900;10.774;2023-05-07T11:55:01;20.10;99.90
39503;DHT22;26970;49.900;10.774;2023-05-07T11:57:29;20.00;99.90
39503;DHT22;26970;49.900;10.774;2023-05-07T11:59:58;19.90;99.90
39503;DHT22;26970;49.900;10.774;2023-05-07T12:02:25;20.10;99.90
39503;DHT22;26970;49.900;10.774;2023-05-07T12:04:52;20.20;99.90
39503;DHT22;26970;49.900;10.774;2023-05-07T12:07:17;20.40;99.90
39503;DHT22;26970;49.900;10.774;2023-05-07T12:09:47;20.80;99.90
39503;DHT22;26970;49.900;10.774;2023-05-07T12:12:13;21.00;99.90
39503;DHT22;26970;49.900;10.774;2023-05-07T12:14:43;21.10;99.90
39503;DHT22;26970;49.900;10.774;2023-05-07T12:17:11;21.10;99.90
39503;DHT22;26970;49.900;10.774;2023-05-07T12:19:39;20.80;99.90
39503;DHT22;26970;49.900;10.774;2023-05-07T12:22:07;20.50;99.90
39503;DHT22;26970;49.900;10.774;2023-05-07T12:24:47;20.40;99.90
39503;DHT22;26970;49.900;10.774;2023-05-07T12:27:14;20.50;99.90
39503;DHT22;26970;49.900;10.774;2023-05-07T12:29:43;20.50;99.90
39503;DHT22;26970;49.900;10.774;2023-05-07T12:32:14;20.40;99.90
39503;DHT22;26970;49.900;10.774;2023-05-07T12:34:40;20.50;99.90
39503;DHT22;26970;49.900;10.774;2023-05-07T12:37:05;20.80;99.90
39503;DHT22;26970;49.900;10.774;2023-05-07T12:39:31;20.80;99.90
39503;DHT22;26970;49.900;10.774;2023-05-07T12:41:59;21.00;99.90
39503;DHT22;26970;49.900;10.774;2023-05-07T12:44:32;21.10;99.90
39503;DHT22;26970;49.900;10.774;2023-05-07T12:47:01;20.70;99.90
39503;DHT22;26970;49.900;10.774;2023-05-07T12:49:26;20.90;99.90
39503;DHT22;26970;49.900;10.774;2023-05-07T12:51:53;20.90;99.90
39503;DHT22;26970;49.900;10.774;2023-05-07T12:54:29;21.00;99.90
39503;DHT22;26970;49.900;10.774;2023-05-07T12:59:37;20.30;99.90
39503;DHT22;26970;49.900;10.774;2023-05-07T13:02:03;20.50;99.90
39503;DHT22;26970;49.900;10.774;2023-05-07T13:04:29;20.40;99.90
39503;DHT22;26970;49.900;10.774;2023-05-07T13:06:54;20.30;99.90
39503;DHT22;26970;49.900;10.774;2023-05-07T13:09:20;20.40;99.90
39503;DHT22;26970;49.900;10.774;2023-05-07T13:11:46;20.90;99.90
39503;DHT22;26970;49.900;10.774;2023-05-07T13:14:12;21.20;99.90
39503;DHT22;26970;49.900;10.774;2023-05-07T13:16:37;21.40;99.90
39503;DHT22;26970;49.900;10.774;2023-05-07T13:19:03;21.40;99.90
39503;DHT22;26970;49.900;10.774;2023-05-07T13:21:29;21.40;99.90
39503;DHT22;26970;49.900;10.774;2023-05-07T13:23:57;21.40;99.90
39503;DHT22;26970;49.900;10.774;2023-05-07T13:26:23;21.30;99.90
39503;DHT22;26970;49.900;10.774;2023-05-07T13:28:49;21.30;99.90
39503;DHT22;26970;49.900;10.774;2023-05-07T13:31:14;21.10;99.90
39503;DHT22;26970;49.900;10.774;2023-05-07T13:33:40;20.90;99.90
39503;DHT22;26970;49.900;10.774;2023-05-07T13:36:06;20.90;99.90
39503;DHT22;26970;49.900;10.774;2023-05-07T13:38:31;21.00;99.90
39503;DHT22;26970;49.900;10.774;2023-05-07T13:40:57;21.30;99.90
39503;DHT22;26970;49.900;10.774;2023-05-07T13:43:24;21.50;99.90
39503;DHT22;26970;49.900;10.774;2023-05-07T13:45:50;21.50;99.90
39503;DHT22;26970;49.900;10.774;2023-05-07T13:48:15;21.30;99.90
39503;DHT22;26970;49.900;10.774;2023-05-07T13:50:41;21.10;99.90
39503;DHT22;26970;49.900;10.774;2023-05-07T13:53:07;20.80;99.90
39503;DHT22;26970;49.900;10.774;2023-05-07T13:55:36;20.50;99.90
39503;DHT22;26970;49.900;10.774;2023-05-07T13:58:02;20.40;99.90
39503;DHT22;26970;49.900;10.774;2023-05-07T14:00:29;20.30;99.90
39503;DHT22;26970;49.900;10.774;2023-05-07T14:02:55;20.30;99.90
39503;DHT22;26970;49.900;10.774;2023-05-07T14:05:21;20.20;99.90
39503;DHT22;26970;49.900;10.774;2023-05-07T14:07:50;20.20;99.90
39503;DHT22;26970;49.900;10.774;2023-05-07T14:10:17;20.20;99.90
39503;DHT22;26970;49.900;10.774;2023-05-07T14:12:44;20.20;99.90
39503;DHT22;26970;49.900;10.774;2023-05-07T14:15:10;20.30;99.90
39503;DHT22;26970;49.900;10.774;2023-05-07T14:17:36;20.20;99.90
39503;DHT22;26970;49.900;10.774;2023-05-07T14:20:02;20.10;99.90
39503;DHT22;26970;49.900;10.774;2023-05-07T14:22:28;20.10;99.90
39503;DHT22;26970;49.900;10.774;2023-05-07T14:24:53;20.10;99.90
39503;DHT22;26970;49.900;10.774;2023-05-07T14:27:19;20.10;99.90
39503;DHT22;26970;49.900;10.774;2023-05-07T14:29:44;20.10;99.90
39503;DHT22;26970;49.900;10.774;2023-05-07T14:32:11;20.10;99.90
39503;DHT22;26970;49.900;10.774;2023-05-07T14:34:36;20.10;99.90
39503;DHT22;26970;49.900;10.774;2023-05-07T14:37:02;20.10;99.90
39503;DHT22;26970;49.900;10.774;2023-05-07T14:39:28;20.00;99.90
39503;DHT22;26970;49.900;10.774;2023-05-07T14:41:54;20.00;99.90
39503;DHT22;26970;49.900;10.774;2023-05-07T14:44:21;20.10;99.90
39503;DHT22;26970;49.900;10.774;2023-05-07T14:46:47;20.00;99.90
39503;DHT22;26970;49.900;10.774;2023-05-07T14:49:14;20.00;99.90
39503;DHT22;26970;49.900;10.774;2023-05-07T14:51:43;20.10;99.90
39503;DHT22;26970;49.900;10.774;2023-05-07T14:54:09;20.10;99.90
39503;DHT22;26970;49.900;10.774;2023-05-07T14:56:35;20.10;99.90
39503;DHT22;26970;49.900;10.774;2023-05-07T14:59:02;20.10;99.90
39503;DHT22;26970;49.900;10.774;2023-05-07T15:01:28;20.20;99.90
39503;DHT22;26970;49.900;10.774;2023-05-07T15:03:54;20.30;99.90
39503;DHT22;26970;49.900;10.774;2023-05-07T15:06:20;20.30;99.90
39503;DHT22;26970;49.900;10.774;2023-05-07T15:08:46;20.30;99.90
39503;DHT22;26970;49.900;10.774;2023-05-07T15:11:12;20.30;99.90
39503;DHT22;26970;49.900;10.774;2023-05-07T15:13:37;20.20;99.90
39503;DHT22;26970;49.900;10.774;2023-05-07T15:16:03;20.30;99.90
39503;DHT22;26970;49.900;10.774;2023-05-07T15:18:28;20.20;99.90
39503;DHT22;26970;49.900;10.774;2023-05-07T15:20:55;20.20;99.90
39503;DHT22;26970;49.900;10.774;2023-05-07T15:23:22;20.10;99.90
39503;DHT22;26970;49.900;10.774;2023-05-07T15:25:48;20.20;99.90
39503;DHT22;26970;49.900;10.774;2023-05-07T15:28:13;20.20;99.90
39503;DHT22;26970;49.900;10.774;2023-05-07T15:30:39;20.20;99.90
39503;DHT22;26970;49.900;10.774;2023-05-07T15:33:05;20.10;99.90
39503;DHT22;26970;49.900;10.774;2023-05-07T15:35:31;20.10;99.90